PWSweather.com
Personal Weather Stations
Station Observations
KTXROWLE6
Ravens Nest, Rowlett, TX 75089

Ravens NestRowlett, TX 75089

Lat: 32.93105, Lon: -96.57368

Elevation: 556

Station Type: Davis Vantage Pro2 6152

http://rowlett.ws

High Low Average
Temperature 87.7°F30.9°C 66.7°F19.3°C 78.0°F25.6°C
Dew Point 60.3°F15.7°C 50.7°F10.4°C 56.2°F13.4°C
Winds 4.2 mph 6.8 kmh Calm Calm 1.0 mph ESE1.6 kmh ESE
Wind Gusts 12.0 mph19.3 kmh -- 4.0 mph6.4 kmh
Humidity 77% 30% 49%
Pressure 30.19 in1022.4 mb 30.04 in1017.3 mb -
Precipitation 0.00 in0.0 mm - -
Hour Temp Dew Point Humidity Winds Wind Gusts Pressure Precip Precip Rate Daily Precip Total
12:00 AM 74.9°F23.8°C 57.6°F14.2°C 55% 0.1 mph NE0.2 kmh NE 3.0 mph4.8 kmh 30.11 in1019.6 mb 0.00 in0.0 mm 0.00 in0.0 mm 0.00 in0.0 mm
12:05 AM 74.6°F23.7°C 57.9°F14.4°C 56% 0.2 mph NE0.3 kmh NE 2.0 mph3.2 kmh 30.11 in1019.6 mb 0.00 in0.0 mm 0.00 in0.0 mm 0.00 in0.0 mm
12:10 AM 74.4°F23.6°C 57.7°F14.3°C 56% 0.4 mph NE0.6 kmh NE 2.0 mph3.2 kmh 30.11 in1019.6 mb 0.00 in0.0 mm 0.00 in0.0 mm 0.00 in0.0 mm
12:15 AM 74.3°F23.5°C 58.1°F14.5°C 57% 0.1 mph NE0.2 kmh NE 2.0 mph3.2 kmh 30.11 in1019.6 mb 0.00 in0.0 mm 0.00 in0.0 mm 0.00 in0.0 mm
12:20 AM 74.1°F23.4°C 57.9°F14.4°C 57% 0.2 mph NE0.3 kmh NE 2.0 mph3.2 kmh 30.11 in1019.6 mb 0.00 in0.0 mm 0.00 in0.0 mm 0.00 in0.0 mm
12:25 AM 73.9°F23.3°C 58.2°F14.6°C 58% Calm Calm 2.0 mph3.2 kmh 30.11 in1019.6 mb 0.00 in0.0 mm 0.00 in0.0 mm 0.00 in0.0 mm
12:30 AM 73.7°F23.2°C 58.0°F14.4°C 58% 0.1 mph NE0.2 kmh NE 1.0 mph1.6 kmh 30.11 in1019.6 mb 0.00 in0.0 mm 0.00 in0.0 mm 0.00 in0.0 mm
12:35 AM 73.6°F23.1°C 57.9°F14.4°C 58% 0.1 mph NE0.2 kmh NE 1.0 mph1.6 kmh 30.11 in1019.6 mb 0.00 in0.0 mm 0.00 in0.0 mm 0.00 in0.0 mm
12:40 AM 73.6°F23.1°C 58.4°F14.7°C 59% 0.3 mph NE0.5 kmh NE 2.0 mph3.2 kmh 30.11 in1019.6 mb 0.00 in0.0 mm 0.00 in0.0 mm 0.00 in0.0 mm
12:45 AM 73.4°F23.0°C 58.2°F14.6°C 59% 0.1 mph NE0.2 kmh NE 2.0 mph3.2 kmh 30.11 in1019.6 mb 0.00 in0.0 mm 0.00 in0.0 mm 0.00 in0.0 mm
12:50 AM 73.2°F22.9°C 58.0°F14.4°C 59% Calm Calm 2.0 mph3.2 kmh 30.11 in1019.6 mb 0.00 in0.0 mm 0.00 in0.0 mm 0.00 in0.0 mm
12:55 AM 72.8°F22.7°C 58.1°F14.5°C 60% Calm Calm -- 30.11 in1019.6 mb 0.00 in0.0 mm 0.00 in0.0 mm 0.00 in0.0 mm
01:00 AM 72.7°F22.6°C 58.5°F14.7°C 61% Calm Calm 1.0 mph1.6 kmh 30.11 in1019.6 mb 0.00 in0.0 mm 0.00 in0.0 mm 0.00 in0.0 mm
01:05 AM 72.6°F22.6°C 58.4°F14.7°C 61% 0.2 mph NE0.3 kmh NE 2.0 mph3.2 kmh 30.11 in1019.6 mb 0.00 in0.0 mm 0.00 in0.0 mm 0.00 in0.0 mm
01:10 AM 72.6°F22.6°C 58.4°F14.7°C 61% 0.3 mph NE0.5 kmh NE 2.0 mph3.2 kmh 30.11 in1019.6 mb 0.00 in0.0 mm 0.00 in0.0 mm 0.00 in0.0 mm
01:15 AM 72.5°F22.5°C 58.3°F14.6°C 61% 0.4 mph NE0.6 kmh NE 2.0 mph3.2 kmh 30.11 in1019.6 mb 0.00 in0.0 mm 0.00 in0.0 mm 0.00 in0.0 mm
01:20 AM 72.3°F22.4°C 58.1°F14.5°C 61% 0.1 mph NE0.2 kmh NE 2.0 mph3.2 kmh 30.11 in1019.6 mb 0.00 in0.0 mm 0.00 in0.0 mm 0.00 in0.0 mm
01:25 AM 72.2°F22.3°C 58.0°F14.4°C 61% 0.1 mph NE0.2 kmh NE 2.0 mph3.2 kmh 30.11 in1019.6 mb 0.00 in0.0 mm 0.00 in0.0 mm 0.00 in0.0 mm
01:30 AM 72.1°F22.3°C 58.3°F14.6°C 62% Calm Calm 2.0 mph3.2 kmh 30.11 in1019.6 mb 0.00 in0.0 mm 0.00 in0.0 mm 0.00 in0.0 mm
01:35 AM 72.1°F22.3°C 58.3°F14.6°C 62% 0.1 mph NE0.2 kmh NE 1.0 mph1.6 kmh 30.11 in1019.6 mb 0.00 in0.0 mm 0.00 in0.0 mm 0.00 in0.0 mm
01:40 AM 72.2°F22.3°C 58.4°F14.7°C 62% 0.2 mph NE0.3 kmh NE 2.0 mph3.2 kmh 30.11 in1019.6 mb 0.00 in0.0 mm 0.00 in0.0 mm 0.00 in0.0 mm
01:45 AM 72.1°F22.3°C 58.8°F14.9°C 63% 0.1 mph NE0.2 kmh NE 2.0 mph3.2 kmh 30.11 in1019.6 mb 0.00 in0.0 mm 0.00 in0.0 mm 0.00 in0.0 mm
01:50 AM 71.8°F22.1°C 59.0°F15.0°C 64% Calm Calm 1.0 mph1.6 kmh 30.11 in1019.6 mb 0.00 in0.0 mm 0.00 in0.0 mm 0.00 in0.0 mm
01:55 AM 71.8°F22.1°C 59.0°F15.0°C 64% Calm Calm 1.0 mph1.6 kmh 30.11 in1019.6 mb 0.00 in0.0 mm 0.00 in0.0 mm 0.00 in0.0 mm
02:00 AM 71.8°F22.1°C 59.0°F15.0°C 64% Calm Calm 1.0 mph1.6 kmh 30.11 in1019.6 mb 0.00 in0.0 mm 0.00 in0.0 mm 0.00 in0.0 mm
02:05 AM 71.7°F22.1°C 59.3°F15.2°C 65% Calm Calm 1.0 mph1.6 kmh 30.11 in1019.6 mb 0.00 in0.0 mm 0.00 in0.0 mm 0.00 in0.0 mm
02:10 AM 71.7°F22.1°C 59.3°F15.2°C 65% Calm Calm -- 30.11 in1019.6 mb 0.00 in0.0 mm 0.00 in0.0 mm 0.00 in0.0 mm
02:15 AM 71.7°F22.1°C 59.3°F15.2°C 65% Calm Calm -- 30.11 in1019.6 mb 0.00 in0.0 mm 0.00 in0.0 mm 0.00 in0.0 mm
02:20 AM 71.5°F21.9°C 59.1°F15.1°C 65% Calm Calm -- 30.11 in1019.6 mb 0.00 in0.0 mm 0.00 in0.0 mm 0.00 in0.0 mm
02:25 AM 71.2°F21.8°C 59.2°F15.1°C 66% Calm Calm -- 30.11 in1019.6 mb 0.00 in0.0 mm 0.00 in0.0 mm 0.00 in0.0 mm
02:30 AM 71.1°F21.7°C 59.6°F15.3°C 67% Calm Calm -- 30.11 in1019.6 mb 0.00 in0.0 mm 0.00 in0.0 mm 0.00 in0.0 mm
02:35 AM 70.9°F21.6°C 59.4°F15.2°C 67% Calm Calm -- 30.11 in1019.6 mb 0.00 in0.0 mm 0.00 in0.0 mm 0.00 in0.0 mm
02:40 AM 70.7°F21.5°C 59.2°F15.1°C 67% Calm Calm -- 30.11 in1019.6 mb 0.00 in0.0 mm 0.00 in0.0 mm 0.00 in0.0 mm
02:45 AM 71.0°F21.7°C 59.5°F15.3°C 67% Calm Calm -- 30.11 in1019.6 mb 0.00 in0.0 mm 0.00 in0.0 mm 0.00 in0.0 mm
02:50 AM 70.9°F21.6°C 59.4°F15.2°C 67% Calm Calm -- 30.11 in1019.6 mb 0.00 in0.0 mm 0.00 in0.0 mm 0.00 in0.0 mm
02:55 AM 70.7°F21.5°C 59.2°F15.1°C 67% Calm Calm -- 30.11 in1019.6 mb 0.00 in0.0 mm 0.00 in0.0 mm 0.00 in0.0 mm
03:00 AM 70.3°F21.3°C 59.2°F15.1°C 68% Calm Calm -- 30.11 in1019.6 mb 0.00 in0.0 mm 0.00 in0.0 mm 0.00 in0.0 mm
03:05 AM 70.1°F21.2°C 59.0°F15.0°C 68% Calm Calm -- 30.11 in1019.6 mb 0.00 in0.0 mm 0.00 in0.0 mm 0.00 in0.0 mm
03:10 AM 70.1°F21.2°C 59.4°F15.2°C 69% Calm Calm -- 30.11 in1019.6 mb 0.00 in0.0 mm 0.00 in0.0 mm 0.00 in0.0 mm
03:15 AM 69.7°F20.9°C 59.1°F15.1°C 69% Calm Calm -- 30.11 in1019.6 mb 0.00 in0.0 mm 0.00 in0.0 mm 0.00 in0.0 mm
03:20 AM 69.7°F20.9°C 59.5°F15.3°C 70% Calm Calm -- 30.11 in1019.6 mb 0.00 in0.0 mm 0.00 in0.0 mm 0.00 in0.0 mm
03:25 AM 69.4°F20.8°C 59.2°F15.1°C 70% Calm Calm -- 30.11 in1019.6 mb 0.00 in0.0 mm 0.00 in0.0 mm 0.00 in0.0 mm
03:30 AM 69.1°F20.6°C 58.9°F14.9°C 70% Calm Calm -- 30.11 in1019.6 mb 0.00 in0.0 mm 0.00 in0.0 mm 0.00 in0.0 mm
03:35 AM 68.7°F20.4°C 58.9°F14.9°C 71% Calm Calm -- 30.11 in1019.6 mb 0.00 in0.0 mm 0.00 in0.0 mm 0.00 in0.0 mm
03:40 AM 68.7°F20.4°C 59.3°F15.2°C 72% Calm Calm -- 30.11 in1019.6 mb 0.00 in0.0 mm 0.00 in0.0 mm 0.00 in0.0 mm
03:45 AM 68.7°F20.4°C 59.3°F15.2°C 72% Calm Calm -- 30.11 in1019.6 mb 0.00 in0.0 mm 0.00 in0.0 mm 0.00 in0.0 mm
03:50 AM 68.8°F20.4°C 59.4°F15.2°C 72% Calm Calm -- 30.11 in1019.6 mb 0.00 in0.0 mm 0.00 in0.0 mm 0.00 in0.0 mm
03:55 AM 68.6°F20.3°C 59.2°F15.1°C 72% Calm Calm -- 30.12 in1020.0 mb 0.00 in0.0 mm 0.00 in0.0 mm 0.00 in0.0 mm
04:00 AM 68.4°F20.2°C 59.4°F15.2°C 73% Calm Calm -- 30.12 in1020.0 mb 0.00 in0.0 mm 0.00 in0.0 mm 0.00 in0.0 mm
04:05 AM 68.3°F20.2°C 59.3°F15.2°C 73% Calm Calm -- 30.12 in1020.0 mb 0.00 in0.0 mm 0.00 in0.0 mm 0.00 in0.0 mm
04:10 AM 68.0°F20.0°C 59.4°F15.2°C 74% Calm Calm -- 30.12 in1020.0 mb 0.00 in0.0 mm 0.00 in0.0 mm 0.00 in0.0 mm
04:15 AM 68.0°F20.0°C 59.4°F15.2°C 74% Calm Calm -- 30.12 in1020.0 mb 0.00 in0.0 mm 0.00 in0.0 mm 0.00 in0.0 mm
04:20 AM 67.7°F19.8°C 59.1°F15.1°C 74% Calm Calm -- 30.12 in1020.0 mb 0.00 in0.0 mm 0.00 in0.0 mm 0.00 in0.0 mm
04:25 AM 67.6°F19.8°C 59.4°F15.2°C 75% Calm Calm -- 30.12 in1020.0 mb 0.00 in0.0 mm 0.00 in0.0 mm 0.00 in0.0 mm
04:30 AM 67.3°F19.6°C 59.5°F15.3°C 76% Calm Calm -- 30.12 in1020.0 mb 0.00 in0.0 mm 0.00 in0.0 mm 0.00 in0.0 mm
04:35 AM 67.4°F19.7°C 59.6°F15.3°C 76% Calm Calm -- 30.12 in1020.0 mb 0.00 in0.0 mm 0.00 in0.0 mm 0.00 in0.0 mm
04:40 AM 67.3°F19.6°C 59.5°F15.3°C 76% Calm Calm -- 30.12 in1020.0 mb 0.00 in0.0 mm 0.00 in0.0 mm 0.00 in0.0 mm
04:45 AM 67.4°F19.7°C 59.9°F15.5°C 77% Calm Calm -- 30.12 in1020.0 mb 0.00 in0.0 mm 0.00 in0.0 mm 0.00 in0.0 mm
04:50 AM 67.6°F19.8°C 59.4°F15.2°C 75% Calm Calm -- 30.12 in1020.0 mb 0.00 in0.0 mm 0.00 in0.0 mm 0.00 in0.0 mm
04:55 AM 67.6°F19.8°C 59.4°F15.2°C 75% Calm Calm -- 30.13 in1020.3 mb 0.00 in0.0 mm 0.00 in0.0 mm 0.00 in0.0 mm
05:00 AM 67.6°F19.8°C 59.4°F15.2°C 75% Calm Calm -- 30.13 in1020.3 mb 0.00 in0.0 mm 0.00 in0.0 mm 0.00 in0.0 mm
05:05 AM 68.1°F20.1°C 59.9°F15.5°C 75% Calm Calm -- 30.13 in1020.3 mb 0.00 in0.0 mm 0.00 in0.0 mm 0.00 in0.0 mm
05:10 AM 68.0°F20.0°C 59.4°F15.2°C 74% Calm Calm -- 30.13 in1020.3 mb 0.00 in0.0 mm 0.00 in0.0 mm 0.00 in0.0 mm
05:15 AM 67.7°F19.8°C 59.1°F15.1°C 74% Calm Calm -- 30.13 in1020.3 mb 0.00 in0.0 mm 0.00 in0.0 mm 0.00 in0.0 mm
05:20 AM 67.4°F19.7°C 59.2°F15.1°C 75% Calm Calm -- 30.14 in1020.7 mb 0.00 in0.0 mm 0.00 in0.0 mm 0.00 in0.0 mm
05:25 AM 67.4°F19.7°C 59.2°F15.1°C 75% Calm Calm -- 30.14 in1020.7 mb 0.00 in0.0 mm 0.00 in0.0 mm 0.00 in0.0 mm
05:30 AM 67.2°F19.6°C 59.0°F15.0°C 75% Calm Calm -- 30.14 in1020.7 mb 0.00 in0.0 mm 0.00 in0.0 mm 0.00 in0.0 mm
05:35 AM 67.0°F19.4°C 59.2°F15.1°C 76% Calm Calm -- 30.14 in1020.7 mb 0.00 in0.0 mm 0.00 in0.0 mm 0.00 in0.0 mm
05:40 AM 66.8°F19.3°C 59.0°F15.0°C 76% Calm Calm -- 30.14 in1020.7 mb 0.00 in0.0 mm 0.00 in0.0 mm 0.00 in0.0 mm
05:45 AM 67.2°F19.6°C 59.4°F15.2°C 76% 0.3 mph NE0.5 kmh NE 1.0 mph1.6 kmh 30.15 in1021.0 mb 0.00 in0.0 mm 0.00 in0.0 mm 0.00 in0.0 mm
05:50 AM 67.0°F19.4°C 59.2°F15.1°C 76% Calm Calm 1.0 mph1.6 kmh 30.15 in1021.0 mb 0.00 in0.0 mm 0.00 in0.0 mm 0.00 in0.0 mm
05:55 AM 66.7°F19.3°C 59.3°F15.2°C 77% Calm Calm -- 30.15 in1021.0 mb 0.00 in0.0 mm 0.00 in0.0 mm 0.00 in0.0 mm
06:00 AM 66.8°F19.3°C 59.4°F15.2°C 77% Calm Calm -- 30.15 in1021.0 mb 0.00 in0.0 mm 0.00 in0.0 mm 0.00 in0.0 mm
06:05 AM 66.9°F19.4°C 59.4°F15.2°C 77% Calm Calm -- 30.15 in1021.0 mb 0.00 in0.0 mm 0.00 in0.0 mm 0.00 in0.0 mm
06:10 AM 67.2°F19.6°C 59.4°F15.2°C 76% Calm Calm -- 30.15 in1021.0 mb 0.00 in0.0 mm 0.00 in0.0 mm 0.00 in0.0 mm
06:15 AM 67.4°F19.7°C 59.6°F15.3°C 76% Calm Calm -- 30.16 in1021.3 mb 0.00 in0.0 mm 0.00 in0.0 mm 0.00 in0.0 mm
06:20 AM 67.9°F19.9°C 59.7°F15.4°C 75% Calm Calm -- 30.16 in1021.3 mb 0.00 in0.0 mm 0.00 in0.0 mm 0.00 in0.0 mm
06:25 AM 68.7°F20.4°C 59.7°F15.4°C 73% Calm Calm -- 30.16 in1021.3 mb 0.00 in0.0 mm 0.00 in0.0 mm 0.00 in0.0 mm
06:30 AM 69.4°F20.8°C 59.6°F15.3°C 71% 0.1 mph NE0.2 kmh NE 2.0 mph3.2 kmh 30.16 in1021.3 mb 0.00 in0.0 mm 0.00 in0.0 mm 0.00 in0.0 mm
06:35 AM 69.9°F21.1°C 59.7°F15.4°C 70% Calm Calm 2.0 mph3.2 kmh 30.16 in1021.3 mb 0.00 in0.0 mm 0.00 in0.0 mm 0.00 in0.0 mm
06:40 AM 70.4°F21.3°C 59.7°F15.4°C 69% Calm Calm 1.0 mph1.6 kmh 30.16 in1021.3 mb 0.00 in0.0 mm 0.00 in0.0 mm 0.00 in0.0 mm
06:45 AM 70.8°F21.6°C 59.7°F15.4°C 68% 0.2 mph NE0.3 kmh NE 1.0 mph1.6 kmh 30.16 in1021.3 mb 0.00 in0.0 mm 0.00 in0.0 mm 0.00 in0.0 mm
06:50 AM 71.3°F21.8°C 59.8°F15.4°C 67% Calm Calm 1.0 mph1.6 kmh 30.17 in1021.7 mb 0.00 in0.0 mm 0.00 in0.0 mm 0.00 in0.0 mm
06:55 AM 71.8°F22.1°C 59.8°F15.4°C 66% 1.1 mph NE1.8 kmh NE 3.0 mph4.8 kmh 30.17 in1021.7 mb 0.00 in0.0 mm 0.00 in0.0 mm 0.00 in0.0 mm
07:00 AM 72.1°F22.3°C 59.7°F15.4°C 65% 0.5 mph NE0.8 kmh NE 3.0 mph4.8 kmh 30.17 in1021.7 mb 0.00 in0.0 mm 0.00 in0.0 mm 0.00 in0.0 mm
07:05 AM 72.4°F22.4°C 59.5°F15.3°C 64% 0.9 mph NE1.4 kmh NE 4.0 mph6.4 kmh 30.17 in1021.7 mb 0.00 in0.0 mm 0.00 in0.0 mm 0.00 in0.0 mm
07:10 AM 72.5°F22.5°C 59.2°F15.1°C 63% 1.7 mph SE2.7 kmh SE 5.0 mph8.0 kmh 30.17 in1021.7 mb 0.00 in0.0 mm 0.00 in0.0 mm 0.00 in0.0 mm
07:15 AM 72.7°F22.6°C 59.8°F15.4°C 64% 0.8 mph SE1.3 kmh SE 5.0 mph8.0 kmh 30.17 in1021.7 mb 0.00 in0.0 mm 0.00 in0.0 mm 0.00 in0.0 mm
07:20 AM 73.0°F22.8°C 60.1°F15.6°C 64% 0.9 mph SE1.4 kmh SE 3.0 mph4.8 kmh 30.17 in1021.7 mb 0.00 in0.0 mm 0.00 in0.0 mm 0.00 in0.0 mm
07:25 AM 73.1°F22.8°C 59.3°F15.2°C 62% 2.0 mph SE3.2 kmh SE 4.0 mph6.4 kmh 30.18 in1022.0 mb 0.00 in0.0 mm 0.00 in0.0 mm 0.00 in0.0 mm
07:30 AM 73.5°F23.1°C 60.1°F15.6°C 63% 1.2 mph SE1.9 kmh SE 4.0 mph6.4 kmh 30.18 in1022.0 mb 0.00 in0.0 mm 0.00 in0.0 mm 0.00 in0.0 mm
07:35 AM 73.7°F23.2°C 59.9°F15.5°C 62% 0.9 mph SE1.4 kmh SE 3.0 mph4.8 kmh 30.18 in1022.0 mb 0.00 in0.0 mm 0.00 in0.0 mm 0.00 in0.0 mm
07:40 AM 73.9°F23.3°C 60.0°F15.6°C 62% 1.6 mph SSE2.6 kmh SSE 4.0 mph6.4 kmh 30.18 in1022.0 mb 0.00 in0.0 mm 0.00 in0.0 mm 0.00 in0.0 mm
07:45 AM 74.2°F23.4°C 59.9°F15.5°C 61% 0.6 mph SSE1.0 kmh SSE 4.0 mph6.4 kmh 30.18 in1022.0 mb 0.00 in0.0 mm 0.00 in0.0 mm 0.00 in0.0 mm
07:50 AM 74.2°F23.4°C 60.3°F15.7°C 62% 0.5 mph SSE0.8 kmh SSE 3.0 mph4.8 kmh 30.18 in1022.0 mb 0.00 in0.0 mm 0.00 in0.0 mm 0.00 in0.0 mm
07:55 AM 74.3°F23.5°C 59.5°F15.3°C 60% 1.4 mph SSE2.3 kmh SSE 4.0 mph6.4 kmh 30.18 in1022.0 mb 0.00 in0.0 mm 0.00 in0.0 mm 0.00 in0.0 mm
08:00 AM 74.4°F23.6°C 59.6°F15.3°C 60% 1.3 mph SE2.1 kmh SE 4.0 mph6.4 kmh 30.19 in1022.4 mb 0.00 in0.0 mm 0.00 in0.0 mm 0.00 in0.0 mm
08:05 AM 74.9°F23.8°C 59.1°F15.1°C 58% 0.3 mph SE0.5 kmh SE 3.0 mph4.8 kmh 30.19 in1022.4 mb 0.00 in0.0 mm 0.00 in0.0 mm 0.00 in0.0 mm
08:10 AM 75.4°F24.1°C 59.1°F15.1°C 57% 1.1 mph SE1.8 kmh SE 3.0 mph4.8 kmh 30.19 in1022.4 mb 0.00 in0.0 mm 0.00 in0.0 mm 0.00 in0.0 mm
08:15 AM 75.8°F24.3°C 58.0°F14.4°C 54% 3.4 mph SSE5.5 kmh SSE 6.0 mph9.7 kmh 30.19 in1022.4 mb 0.00 in0.0 mm 0.00 in0.0 mm 0.00 in0.0 mm
08:20 AM 76.2°F24.6°C 57.8°F14.3°C 53% 3.0 mph SE4.8 kmh SE 6.0 mph9.7 kmh 30.19 in1022.4 mb 0.00 in0.0 mm 0.00 in0.0 mm 0.00 in0.0 mm
08:25 AM 76.2°F24.6°C 57.8°F14.3°C 53% 1.5 mph SE2.4 kmh SE 5.0 mph8.0 kmh 30.19 in1022.4 mb 0.00 in0.0 mm 0.00 in0.0 mm 0.00 in0.0 mm
08:30 AM 76.8°F24.9°C 57.8°F14.3°C 52% 1.6 mph SSE2.6 kmh SSE 5.0 mph8.0 kmh 30.19 in1022.4 mb 0.00 in0.0 mm 0.00 in0.0 mm 0.00 in0.0 mm
08:35 AM 76.8°F24.9°C 56.7°F13.7°C 50% 3.0 mph SE4.8 kmh SE 5.0 mph8.0 kmh 30.19 in1022.4 mb 0.00 in0.0 mm 0.00 in0.0 mm 0.00 in0.0 mm
08:40 AM 77.1°F25.1°C 58.1°F14.5°C 52% 0.9 mph ESE1.4 kmh ESE 5.0 mph8.0 kmh 30.19 in1022.4 mb 0.00 in0.0 mm 0.00 in0.0 mm 0.00 in0.0 mm
08:45 AM 77.4°F25.2°C 57.3°F14.1°C 50% 2.0 mph SSE3.2 kmh SSE 5.0 mph8.0 kmh 30.19 in1022.4 mb 0.00 in0.0 mm 0.00 in0.0 mm 0.00 in0.0 mm
08:50 AM 77.3°F25.2°C 57.2°F14.0°C 50% 1.2 mph SSE1.9 kmh SSE 5.0 mph8.0 kmh 30.19 in1022.4 mb 0.00 in0.0 mm 0.00 in0.0 mm 0.00 in0.0 mm
08:55 AM 77.2°F25.1°C 57.1°F13.9°C 50% 2.5 mph SSE4.0 kmh SSE 5.0 mph8.0 kmh 30.19 in1022.4 mb 0.00 in0.0 mm 0.00 in0.0 mm 0.00 in0.0 mm
09:00 AM 78.2°F25.7°C 57.5°F14.2°C 49% 0.8 mph ESE1.3 kmh ESE 5.0 mph8.0 kmh 30.19 in1022.4 mb 0.00 in0.0 mm 0.00 in0.0 mm 0.00 in0.0 mm
09:05 AM 78.7°F25.9°C 57.9°F14.4°C 49% 1.4 mph E2.3 kmh E 4.0 mph6.4 kmh 30.19 in1022.4 mb 0.00 in0.0 mm 0.00 in0.0 mm 0.00 in0.0 mm
09:10 AM 78.2°F25.7°C 56.9°F13.8°C 48% 3.0 mph SE4.8 kmh SE 7.0 mph11.3 kmh 30.19 in1022.4 mb 0.00 in0.0 mm 0.00 in0.0 mm 0.00 in0.0 mm
09:15 AM 78.5°F25.8°C 57.2°F14.0°C 48% 1.4 mph SE2.3 kmh SE 7.0 mph11.3 kmh 30.19 in1022.4 mb 0.00 in0.0 mm 0.00 in0.0 mm 0.00 in0.0 mm
09:20 AM 78.9°F26.1°C 57.5°F14.2°C 48% 1.3 mph E2.1 kmh E 4.0 mph6.4 kmh 30.19 in1022.4 mb 0.00 in0.0 mm 0.00 in0.0 mm 0.00 in0.0 mm
09:25 AM 78.8°F26.0°C 57.4°F14.1°C 48% 1.1 mph NE1.8 kmh NE 4.0 mph6.4 kmh 30.19 in1022.4 mb 0.00 in0.0 mm 0.00 in0.0 mm 0.00 in0.0 mm
09:30 AM 79.3°F26.3°C 56.7°F13.7°C 46% 2.3 mph SE3.7 kmh SE 6.0 mph9.7 kmh 30.19 in1022.4 mb 0.00 in0.0 mm 0.00 in0.0 mm 0.00 in0.0 mm
09:35 AM 78.7°F25.9°C 56.2°F13.4°C 46% 1.9 mph SE3.1 kmh SE 6.0 mph9.7 kmh 30.18 in1022.0 mb 0.00 in0.0 mm 0.00 in0.0 mm 0.00 in0.0 mm
09:40 AM 78.8°F26.0°C 56.2°F13.4°C 46% 1.8 mph SE2.9 kmh SE 7.0 mph11.3 kmh 30.18 in1022.0 mb 0.00 in0.0 mm 0.00 in0.0 mm 0.00 in0.0 mm
09:45 AM 79.4°F26.3°C 56.8°F13.8°C 46% 1.7 mph E2.7 kmh E 7.0 mph11.3 kmh 30.18 in1022.0 mb 0.00 in0.0 mm 0.00 in0.0 mm 0.00 in0.0 mm
09:50 AM 79.9°F26.6°C 56.6°F13.7°C 45% 2.1 mph SE3.4 kmh SE 9.0 mph14.5 kmh 30.18 in1022.0 mb 0.00 in0.0 mm 0.00 in0.0 mm 0.00 in0.0 mm
09:55 AM 79.6°F26.4°C 56.4°F13.6°C 45% 3.8 mph SE6.1 kmh SE 9.0 mph14.5 kmh 30.18 in1022.0 mb 0.00 in0.0 mm 0.00 in0.0 mm 0.00 in0.0 mm
10:00 AM 79.8°F26.6°C 55.9°F13.3°C 44% 2.1 mph SE3.4 kmh SE 8.0 mph12.9 kmh 30.18 in1022.0 mb 0.00 in0.0 mm 0.00 in0.0 mm 0.00 in0.0 mm
10:05 AM 80.0°F26.7°C 56.1°F13.4°C 44% 2.3 mph SE3.7 kmh SE 7.0 mph11.3 kmh 30.18 in1022.0 mb 0.00 in0.0 mm 0.00 in0.0 mm 0.00 in0.0 mm
10:10 AM 80.3°F26.8°C 57.6°F14.2°C 46% 2.5 mph SE4.0 kmh SE 7.0 mph11.3 kmh 30.18 in1022.0 mb 0.00 in0.0 mm 0.00 in0.0 mm 0.00 in0.0 mm
10:15 AM 80.3°F26.8°C 57.6°F14.2°C 46% 1.4 mph E2.3 kmh E 7.0 mph11.3 kmh 30.18 in1022.0 mb 0.00 in0.0 mm 0.00 in0.0 mm 0.00 in0.0 mm
10:20 AM 80.3°F26.8°C 57.6°F14.2°C 46% 1.4 mph ESE2.3 kmh ESE 5.0 mph8.0 kmh 30.18 in1022.0 mb 0.00 in0.0 mm 0.00 in0.0 mm 0.00 in0.0 mm
10:25 AM 80.9°F27.2°C 57.5°F14.2°C 45% 3.2 mph SE5.1 kmh SE 7.0 mph11.3 kmh 30.18 in1022.0 mb 0.00 in0.0 mm 0.00 in0.0 mm 0.00 in0.0 mm
10:30 AM 80.5°F26.9°C 58.4°F14.7°C 47% 3.1 mph SSE5.0 kmh SSE 7.0 mph11.3 kmh 30.18 in1022.0 mb 0.00 in0.0 mm 0.00 in0.0 mm 0.00 in0.0 mm
10:35 AM 81.1°F27.3°C 57.1°F13.9°C 44% 2.7 mph SE4.3 kmh SE 7.0 mph11.3 kmh 30.17 in1021.7 mb 0.00 in0.0 mm 0.00 in0.0 mm 0.00 in0.0 mm
10:40 AM 81.5°F27.5°C 58.7°F14.8°C 46% 2.6 mph SE4.2 kmh SE 7.0 mph11.3 kmh 30.17 in1021.7 mb 0.00 in0.0 mm 0.00 in0.0 mm 0.00 in0.0 mm
10:45 AM 82.2°F27.9°C 58.7°F14.8°C 45% 1.6 mph E2.6 kmh E 6.0 mph9.7 kmh 30.17 in1021.7 mb 0.00 in0.0 mm 0.00 in0.0 mm 0.00 in0.0 mm
10:50 AM 82.0°F27.8°C 59.2°F15.1°C 46% 1.9 mph SE3.1 kmh SE 6.0 mph9.7 kmh 30.17 in1021.7 mb 0.00 in0.0 mm 0.00 in0.0 mm 0.00 in0.0 mm
10:55 AM 82.1°F27.8°C 57.4°F14.1°C 43% 2.4 mph SE3.9 kmh SE 6.0 mph9.7 kmh 30.17 in1021.7 mb 0.00 in0.0 mm 0.00 in0.0 mm 0.00 in0.0 mm
11:00 AM 82.0°F27.8°C 56.6°F13.7°C 42% 2.1 mph SSE3.4 kmh SSE 6.0 mph9.7 kmh 30.17 in1021.7 mb 0.00 in0.0 mm 0.00 in0.0 mm 0.00 in0.0 mm
11:05 AM 82.2°F27.9°C 58.1°F14.5°C 44% 1.5 mph SE2.4 kmh SE 6.0 mph9.7 kmh 30.17 in1021.7 mb 0.00 in0.0 mm 0.00 in0.0 mm 0.00 in0.0 mm
11:10 AM 83.9°F28.8°C 59.0°F15.0°C 43% 1.4 mph ENE2.3 kmh ENE 4.0 mph6.4 kmh 30.16 in1021.3 mb 0.00 in0.0 mm 0.00 in0.0 mm 0.00 in0.0 mm
11:15 AM 83.5°F28.6°C 56.6°F13.7°C 40% 1.7 mph ESE2.7 kmh ESE 6.0 mph9.7 kmh 30.16 in1021.3 mb 0.00 in0.0 mm 0.00 in0.0 mm 0.00 in0.0 mm
11:20 AM 81.9°F27.7°C 55.2°F12.9°C 40% 1.5 mph SE2.4 kmh SE 6.0 mph9.7 kmh 30.16 in1021.3 mb 0.00 in0.0 mm 0.00 in0.0 mm 0.00 in0.0 mm
11:25 AM 81.4°F27.4°C 54.0°F12.2°C 39% 1.7 mph SE2.7 kmh SE 4.0 mph6.4 kmh 30.16 in1021.3 mb 0.00 in0.0 mm 0.00 in0.0 mm 0.00 in0.0 mm
11:30 AM 81.9°F27.7°C 54.5°F12.5°C 39% 2.6 mph SSE4.2 kmh SSE 7.0 mph11.3 kmh 30.16 in1021.3 mb 0.00 in0.0 mm 0.00 in0.0 mm 0.00 in0.0 mm
11:35 AM 83.2°F28.4°C 56.3°F13.5°C 40% 1.3 mph SE2.1 kmh SE 7.0 mph11.3 kmh 30.16 in1021.3 mb 0.00 in0.0 mm 0.00 in0.0 mm 0.00 in0.0 mm
11:40 AM 83.9°F28.8°C 54.1°F12.3°C 36% 2.5 mph SE4.0 kmh SE 7.0 mph11.3 kmh 30.16 in1021.3 mb 0.00 in0.0 mm 0.00 in0.0 mm 0.00 in0.0 mm
11:45 AM 83.8°F28.8°C 54.7°F12.6°C 37% 4.0 mph SE6.4 kmh SE 12.0 mph19.3 kmh 30.15 in1021.0 mb 0.00 in0.0 mm 0.00 in0.0 mm 0.00 in0.0 mm
11:50 AM 83.6°F28.7°C 54.5°F12.5°C 37% 3.4 mph ESE5.5 kmh ESE 12.0 mph19.3 kmh 30.15 in1021.0 mb 0.00 in0.0 mm 0.00 in0.0 mm 0.00 in0.0 mm
11:55 AM 83.6°F28.7°C 55.3°F12.9°C 38% 4.2 mph SE6.8 kmh SE 9.0 mph14.5 kmh 30.15 in1021.0 mb 0.00 in0.0 mm 0.00 in0.0 mm 0.00 in0.0 mm
12:00 PM 84.4°F29.1°C 55.2°F12.9°C 37% 2.8 mph SE4.5 kmh SE 10.0 mph16.1 kmh 30.15 in1021.0 mb 0.00 in0.0 mm 0.00 in0.0 mm 0.00 in0.0 mm
12:05 PM 83.8°F28.8°C 55.5°F13.1°C 38% 3.8 mph SE6.1 kmh SE 10.0 mph16.1 kmh 30.15 in1021.0 mb 0.00 in0.0 mm 0.00 in0.0 mm 0.00 in0.0 mm
12:10 PM 83.4°F28.6°C 55.8°F13.2°C 39% 2.8 mph SE4.5 kmh SE 9.0 mph14.5 kmh 30.15 in1021.0 mb 0.00 in0.0 mm 0.00 in0.0 mm 0.00 in0.0 mm
12:15 PM 83.7°F28.7°C 56.1°F13.4°C 39% 3.0 mph SE4.8 kmh SE 7.0 mph11.3 kmh 30.15 in1021.0 mb 0.00 in0.0 mm 0.00 in0.0 mm 0.00 in0.0 mm
12:20 PM 84.1°F28.9°C 55.0°F12.8°C 37% 2.1 mph SE3.4 kmh SE 7.0 mph11.3 kmh 30.15 in1021.0 mb 0.00 in0.0 mm 0.00 in0.0 mm 0.00 in0.0 mm
12:25 PM 83.9°F28.8°C 57.0°F13.9°C 40% 1.8 mph SE2.9 kmh SE 7.0 mph11.3 kmh 30.14 in1020.7 mb 0.00 in0.0 mm 0.00 in0.0 mm 0.00 in0.0 mm
12:30 PM 84.5°F29.2°C 55.3°F12.9°C 37% 2.6 mph SE4.2 kmh SE 7.0 mph11.3 kmh 30.14 in1020.7 mb 0.00 in0.0 mm 0.00 in0.0 mm 0.00 in0.0 mm
12:35 PM 84.4°F29.1°C 53.7°F12.1°C 35% 3.1 mph SE5.0 kmh SE 10.0 mph16.1 kmh 30.14 in1020.7 mb 0.00 in0.0 mm 0.00 in0.0 mm 0.00 in0.0 mm
12:40 PM 83.9°F28.8°C 55.5°F13.1°C 38% 1.5 mph SE2.4 kmh SE 10.0 mph16.1 kmh 30.14 in1020.7 mb 0.00 in0.0 mm 0.00 in0.0 mm 0.00 in0.0 mm
12:45 PM 84.6°F29.2°C 54.7°F12.6°C 36% 4.1 mph SE6.6 kmh SE 11.0 mph17.7 kmh 30.14 in1020.7 mb 0.00 in0.0 mm 0.00 in0.0 mm 0.00 in0.0 mm
12:50 PM 85.1°F29.5°C 54.3°F12.4°C 35% 1.6 mph E2.6 kmh E 11.0 mph17.7 kmh 30.14 in1020.7 mb 0.00 in0.0 mm 0.00 in0.0 mm 0.00 in0.0 mm
12:55 PM 85.1°F29.5°C 55.9°F13.3°C 37% 2.1 mph SE3.4 kmh SE 7.0 mph11.3 kmh 30.13 in1020.3 mb 0.00 in0.0 mm 0.00 in0.0 mm 0.00 in0.0 mm
01:00 PM 84.7°F29.3°C 53.2°F11.8°C 34% 1.9 mph ESE3.1 kmh ESE 7.0 mph11.3 kmh 30.13 in1020.3 mb 0.00 in0.0 mm 0.00 in0.0 mm 0.00 in0.0 mm
01:05 PM 85.1°F29.5°C 54.3°F12.4°C 35% 2.2 mph SE3.5 kmh SE 7.0 mph11.3 kmh 30.12 in1020.0 mb 0.00 in0.0 mm 0.00 in0.0 mm 0.00 in0.0 mm
01:10 PM 85.4°F29.7°C 55.4°F13.0°C 36% 2.0 mph ESE3.2 kmh ESE 7.0 mph11.3 kmh 30.12 in1020.0 mb 0.00 in0.0 mm 0.00 in0.0 mm 0.00 in0.0 mm
01:15 PM 85.4°F29.7°C 54.6°F12.6°C 35% 1.6 mph ESE2.6 kmh ESE 7.0 mph11.3 kmh 30.12 in1020.0 mb 0.00 in0.0 mm 0.00 in0.0 mm 0.00 in0.0 mm
01:20 PM 85.3°F29.6°C 53.7°F12.1°C 34% 2.2 mph E3.5 kmh E 6.0 mph9.7 kmh 30.12 in1020.0 mb 0.00 in0.0 mm 0.00 in0.0 mm 0.00 in0.0 mm
01:25 PM 85.1°F29.5°C 54.3°F12.4°C 35% 2.4 mph E3.9 kmh E 6.0 mph9.7 kmh 30.12 in1020.0 mb 0.00 in0.0 mm 0.00 in0.0 mm 0.00 in0.0 mm
01:30 PM 86.4°F30.2°C 56.3°F13.5°C 36% 1.6 mph NE2.6 kmh NE 5.0 mph8.0 kmh 30.12 in1020.0 mb 0.00 in0.0 mm 0.00 in0.0 mm 0.00 in0.0 mm
01:35 PM 86.3°F30.2°C 56.9°F13.8°C 37% 2.3 mph E3.7 kmh E 6.0 mph9.7 kmh 30.11 in1019.6 mb 0.00 in0.0 mm 0.00 in0.0 mm 0.00 in0.0 mm
01:40 PM 86.9°F30.5°C 55.1°F12.8°C 34% 1.9 mph NE3.1 kmh NE 6.0 mph9.7 kmh 30.11 in1019.6 mb 0.00 in0.0 mm 0.00 in0.0 mm 0.00 in0.0 mm
01:45 PM 86.2°F30.1°C 54.5°F12.5°C 34% 3.0 mph NNE4.8 kmh NNE 8.0 mph12.9 kmh 30.11 in1019.6 mb 0.00 in0.0 mm 0.00 in0.0 mm 0.00 in0.0 mm
01:50 PM 85.9°F29.9°C 54.2°F12.3°C 34% 1.3 mph NE2.1 kmh NE 8.0 mph12.9 kmh 30.11 in1019.6 mb 0.00 in0.0 mm 0.00 in0.0 mm 0.00 in0.0 mm
01:55 PM 85.9°F29.9°C 55.0°F12.8°C 35% 2.5 mph SE4.0 kmh SE 6.0 mph9.7 kmh 30.11 in1019.6 mb 0.00 in0.0 mm 0.00 in0.0 mm 0.00 in0.0 mm
02:00 PM 85.3°F29.6°C 54.5°F12.5°C 35% 1.7 mph SE2.7 kmh SE 6.0 mph9.7 kmh 30.10 in1019.3 mb 0.00 in0.0 mm 0.00 in0.0 mm 0.00 in0.0 mm
02:05 PM 86.8°F30.4°C 55.8°F13.2°C 35% 2.5 mph ENE4.0 kmh ENE 7.0 mph11.3 kmh 30.10 in1019.3 mb 0.00 in0.0 mm 0.00 in0.0 mm 0.00 in0.0 mm
02:10 PM 86.6°F30.3°C 54.0°F12.2°C 33% 2.2 mph NE3.5 kmh NE 7.0 mph11.3 kmh 30.10 in1019.3 mb 0.00 in0.0 mm 0.00 in0.0 mm 0.00 in0.0 mm
02:15 PM 85.6°F29.8°C 54.8°F12.7°C 35% 1.6 mph ENE2.6 kmh ENE 5.0 mph8.0 kmh 30.10 in1019.3 mb 0.00 in0.0 mm 0.00 in0.0 mm 0.00 in0.0 mm
02:20 PM 85.3°F29.6°C 55.3°F12.9°C 36% 1.1 mph SE1.8 kmh SE 6.0 mph9.7 kmh 30.09 in1019.0 mb 0.00 in0.0 mm 0.00 in0.0 mm 0.00 in0.0 mm
02:25 PM 86.9°F30.5°C 55.1°F12.8°C 34% 2.0 mph E3.2 kmh E 8.0 mph12.9 kmh 30.09 in1019.0 mb 0.00 in0.0 mm 0.00 in0.0 mm 0.00 in0.0 mm
02:30 PM 86.4°F30.2°C 53.0°F11.7°C 32% 2.5 mph SE4.0 kmh SE 8.0 mph12.9 kmh 30.09 in1019.0 mb 0.00 in0.0 mm 0.00 in0.0 mm 0.00 in0.0 mm
02:35 PM 86.1°F30.1°C 54.4°F12.4°C 34% 1.8 mph SE2.9 kmh SE 8.0 mph12.9 kmh 30.09 in1019.0 mb 0.00 in0.0 mm 0.00 in0.0 mm 0.00 in0.0 mm
02:40 PM 85.4°F29.7°C 54.6°F12.6°C 35% 2.5 mph SSE4.0 kmh SSE 5.0 mph8.0 kmh 30.08 in1018.6 mb 0.00 in0.0 mm 0.00 in0.0 mm 0.00 in0.0 mm
02:45 PM 86.6°F30.3°C 54.9°F12.7°C 34% 2.3 mph SE3.7 kmh SE 7.0 mph11.3 kmh 30.08 in1018.6 mb 0.00 in0.0 mm 0.00 in0.0 mm 0.00 in0.0 mm
02:50 PM 86.2°F30.1°C 52.8°F11.6°C 32% 2.5 mph ESE4.0 kmh ESE 7.0 mph11.3 kmh 30.08 in1018.6 mb 0.00 in0.0 mm 0.00 in0.0 mm 0.00 in0.0 mm
02:55 PM 86.2°F30.1°C 52.8°F11.6°C 32% 3.6 mph NW5.8 kmh NW 6.0 mph9.7 kmh 30.08 in1018.6 mb 0.00 in0.0 mm 0.00 in0.0 mm 0.00 in0.0 mm
03:00 PM 85.9°F29.9°C 52.6°F11.4°C 32% 1.8 mph NE2.9 kmh NE 8.0 mph12.9 kmh 30.08 in1018.6 mb 0.00 in0.0 mm 0.00 in0.0 mm 0.00 in0.0 mm
03:05 PM 85.9°F29.9°C 53.4°F11.9°C 33% 3.1 mph SE5.0 kmh SE 8.0 mph12.9 kmh 30.08 in1018.6 mb 0.00 in0.0 mm 0.00 in0.0 mm 0.00 in0.0 mm
03:10 PM 86.2°F30.1°C 52.8°F11.6°C 32% 2.2 mph SE3.5 kmh SE 7.0 mph11.3 kmh 30.07 in1018.3 mb 0.00 in0.0 mm 0.00 in0.0 mm 0.00 in0.0 mm
03:15 PM 86.4°F30.2°C 52.2°F11.2°C 31% 3.0 mph SE4.8 kmh SE 8.0 mph12.9 kmh 30.07 in1018.3 mb 0.00 in0.0 mm 0.00 in0.0 mm 0.00 in0.0 mm
03:20 PM 86.6°F30.3°C 52.3°F11.3°C 31% 1.7 mph E2.7 kmh E 8.0 mph12.9 kmh 30.07 in1018.3 mb 0.00 in0.0 mm 0.00 in0.0 mm 0.00 in0.0 mm
03:25 PM 86.4°F30.2°C 53.9°F12.2°C 33% 1.7 mph E2.7 kmh E 6.0 mph9.7 kmh 30.07 in1018.3 mb 0.00 in0.0 mm 0.00 in0.0 mm 0.00 in0.0 mm
03:30 PM 86.7°F30.4°C 52.4°F11.3°C 31% 2.8 mph SE4.5 kmh SE 7.0 mph11.3 kmh 30.07 in1018.3 mb 0.00 in0.0 mm 0.00 in0.0 mm 0.00 in0.0 mm
03:35 PM 86.7°F30.4°C 53.3°F11.8°C 32% 2.6 mph ESE4.2 kmh ESE 7.0 mph11.3 kmh 30.07 in1018.3 mb 0.00 in0.0 mm 0.00 in0.0 mm 0.00 in0.0 mm
03:40 PM 86.5°F30.3°C 53.1°F11.7°C 32% 1.4 mph ESE2.3 kmh ESE 7.0 mph11.3 kmh 30.07 in1018.3 mb 0.00 in0.0 mm 0.00 in0.0 mm 0.00 in0.0 mm
03:45 PM 87.6°F30.9°C 54.9°F12.7°C 33% 1.8 mph NNE2.9 kmh NNE 6.0 mph9.7 kmh 30.06 in1017.9 mb 0.00 in0.0 mm 0.00 in0.0 mm 0.00 in0.0 mm
03:50 PM 87.1°F30.6°C 52.8°F11.6°C 31% 2.3 mph N3.7 kmh N 6.0 mph9.7 kmh 30.06 in1017.9 mb 0.00 in0.0 mm 0.00 in0.0 mm 0.00 in0.0 mm
03:55 PM 86.9°F30.5°C 53.5°F11.9°C 32% 1.3 mph SE2.1 kmh SE 6.0 mph9.7 kmh 30.06 in1017.9 mb 0.00 in0.0 mm 0.00 in0.0 mm 0.00 in0.0 mm
04:00 PM 87.2°F30.7°C 52.8°F11.6°C 31% 2.0 mph SE3.2 kmh SE 7.0 mph11.3 kmh 30.06 in1017.9 mb 0.00 in0.0 mm 0.00 in0.0 mm 0.00 in0.0 mm
04:05 PM 87.5°F30.8°C 53.1°F11.7°C 31% 1.5 mph E2.4 kmh E 7.0 mph11.3 kmh 30.05 in1017.6 mb 0.00 in0.0 mm 0.00 in0.0 mm 0.00 in0.0 mm
04:10 PM 87.1°F30.6°C 52.8°F11.6°C 31% 1.9 mph ESE3.1 kmh ESE 5.0 mph8.0 kmh 30.06 in1017.9 mb 0.00 in0.0 mm 0.00 in0.0 mm 0.00 in0.0 mm
04:15 PM 87.5°F30.8°C 53.1°F11.7°C 31% 1.6 mph E2.6 kmh E 5.0 mph8.0 kmh 30.06 in1017.9 mb 0.00 in0.0 mm 0.00 in0.0 mm 0.00 in0.0 mm
04:20 PM 86.8°F30.4°C 53.4°F11.9°C 32% 1.2 mph E1.9 kmh E 5.0 mph8.0 kmh 30.05 in1017.6 mb 0.00 in0.0 mm 0.00 in0.0 mm 0.00 in0.0 mm
04:25 PM 87.3°F30.7°C 54.6°F12.6°C 33% 1.7 mph NE2.7 kmh NE 5.0 mph8.0 kmh 30.05 in1017.6 mb 0.00 in0.0 mm 0.00 in0.0 mm 0.00 in0.0 mm
04:30 PM 87.7°F30.9°C 52.4°F11.3°C 30% 2.2 mph ENE3.5 kmh ENE 7.0 mph11.3 kmh 30.05 in1017.6 mb 0.00 in0.0 mm 0.00 in0.0 mm 0.00 in0.0 mm
04:35 PM 87.6°F30.9°C 53.2°F11.8°C 31% 2.4 mph N3.9 kmh N 7.0 mph11.3 kmh 30.05 in1017.6 mb 0.00 in0.0 mm 0.00 in0.0 mm 0.00 in0.0 mm
04:40 PM 87.4°F30.8°C 52.1°F11.2°C 30% 2.9 mph SE4.7 kmh SE 7.0 mph11.3 kmh 30.05 in1017.6 mb 0.00 in0.0 mm 0.00 in0.0 mm 0.00 in0.0 mm
04:45 PM 87.2°F30.7°C 52.8°F11.6°C 31% 3.3 mph SE5.3 kmh SE 9.0 mph14.5 kmh 30.05 in1017.6 mb 0.00 in0.0 mm 0.00 in0.0 mm 0.00 in0.0 mm
04:50 PM 87.2°F30.7°C 52.8°F11.6°C 31% 1.5 mph ENE2.4 kmh ENE 9.0 mph14.5 kmh 30.05 in1017.6 mb 0.00 in0.0 mm 0.00 in0.0 mm 0.00 in0.0 mm
04:55 PM 87.0°F30.6°C 53.5°F11.9°C 32% 2.1 mph SE3.4 kmh SE 7.0 mph11.3 kmh 30.05 in1017.6 mb 0.00 in0.0 mm 0.00 in0.0 mm 0.00 in0.0 mm
05:00 PM 87.1°F30.6°C 52.8°F11.6°C 31% 1.2 mph ENE1.9 kmh ENE 7.0 mph11.3 kmh 30.05 in1017.6 mb 0.00 in0.0 mm 0.00 in0.0 mm 0.00 in0.0 mm
05:05 PM 86.7°F30.4°C 51.5°F10.8°C 30% 1.8 mph SE2.9 kmh SE 6.0 mph9.7 kmh 30.05 in1017.6 mb 0.00 in0.0 mm 0.00 in0.0 mm 0.00 in0.0 mm
05:10 PM 86.7°F30.4°C 51.5°F10.8°C 30% 2.6 mph SE4.2 kmh SE 6.0 mph9.7 kmh 30.05 in1017.6 mb 0.00 in0.0 mm 0.00 in0.0 mm 0.00 in0.0 mm
05:15 PM 86.7°F30.4°C 52.4°F11.3°C 31% 2.0 mph SE3.2 kmh SE 9.0 mph14.5 kmh 30.04 in1017.3 mb 0.00 in0.0 mm 0.00 in0.0 mm 0.00 in0.0 mm
05:20 PM 86.6°F30.3°C 53.2°F11.8°C 32% 2.6 mph SE4.2 kmh SE 9.0 mph14.5 kmh 30.04 in1017.3 mb 0.00 in0.0 mm 0.00 in0.0 mm 0.00 in0.0 mm
05:25 PM 86.7°F30.4°C 53.3°F11.8°C 32% 1.4 mph ESE2.3 kmh ESE 8.0 mph12.9 kmh 30.04 in1017.3 mb 0.00 in0.0 mm 0.00 in0.0 mm 0.00 in0.0 mm
05:30 PM 86.5°F30.3°C 53.1°F11.7°C 32% 1.0 mph SE1.6 kmh SE 4.0 mph6.4 kmh 30.04 in1017.3 mb 0.00 in0.0 mm 0.00 in0.0 mm 0.00 in0.0 mm
05:35 PM 86.6°F30.3°C 52.3°F11.3°C 31% 1.9 mph SE3.1 kmh SE 5.0 mph8.0 kmh 30.04 in1017.3 mb 0.00 in0.0 mm 0.00 in0.0 mm 0.00 in0.0 mm
05:40 PM 86.5°F30.3°C 52.2°F11.2°C 31% 1.4 mph NE2.3 kmh NE 5.0 mph8.0 kmh 30.04 in1017.3 mb 0.00 in0.0 mm 0.00 in0.0 mm 0.00 in0.0 mm
05:45 PM 86.4°F30.2°C 53.0°F11.7°C 32% 1.9 mph SE3.1 kmh SE 7.0 mph11.3 kmh 30.05 in1017.6 mb 0.00 in0.0 mm 0.00 in0.0 mm 0.00 in0.0 mm
05:50 PM 86.3°F30.2°C 52.1°F11.2°C 31% 1.1 mph ESE1.8 kmh ESE 7.0 mph11.3 kmh 30.05 in1017.6 mb 0.00 in0.0 mm 0.00 in0.0 mm 0.00 in0.0 mm
05:55 PM 86.3°F30.2°C 52.1°F11.2°C 31% 2.5 mph SE4.0 kmh SE 6.0 mph9.7 kmh 30.05 in1017.6 mb 0.00 in0.0 mm 0.00 in0.0 mm 0.00 in0.0 mm
06:00 PM 86.3°F30.2°C 52.1°F11.2°C 31% 2.6 mph SE4.2 kmh SE 6.0 mph9.7 kmh 30.05 in1017.6 mb 0.00 in0.0 mm 0.00 in0.0 mm 0.00 in0.0 mm
06:05 PM 86.0°F30.0°C 52.7°F11.5°C 32% 1.7 mph SE2.7 kmh SE 6.0 mph9.7 kmh 30.05 in1017.6 mb 0.00 in0.0 mm 0.00 in0.0 mm 0.00 in0.0 mm
06:10 PM 85.8°F29.9°C 51.6°F10.9°C 31% 3.1 mph SE5.0 kmh SE 9.0 mph14.5 kmh 30.05 in1017.6 mb 0.00 in0.0 mm 0.00 in0.0 mm 0.00 in0.0 mm
06:15 PM 85.6°F29.8°C 51.5°F10.8°C 31% 2.8 mph SE4.5 kmh SE 9.0 mph14.5 kmh 30.05 in1017.6 mb 0.00 in0.0 mm 0.00 in0.0 mm 0.00 in0.0 mm
06:20 PM 85.5°F29.7°C 51.4°F10.8°C 31% 3.6 mph SE5.8 kmh SE 7.0 mph11.3 kmh 30.05 in1017.6 mb 0.00 in0.0 mm 0.00 in0.0 mm 0.00 in0.0 mm
06:25 PM 85.3°F29.6°C 52.1°F11.2°C 32% 1.3 mph SE2.1 kmh SE 7.0 mph11.3 kmh 30.05 in1017.6 mb 0.00 in0.0 mm 0.00 in0.0 mm 0.00 in0.0 mm
06:30 PM 85.0°F29.4°C 51.8°F11.0°C 32% 2.8 mph SE4.5 kmh SE 9.0 mph14.5 kmh 30.05 in1017.6 mb 0.00 in0.0 mm 0.00 in0.0 mm 0.00 in0.0 mm
06:35 PM 84.7°F29.3°C 51.5°F10.8°C 32% 1.5 mph SE2.4 kmh SE 9.0 mph14.5 kmh 30.05 in1017.6 mb 0.00 in0.0 mm 0.00 in0.0 mm 0.00 in0.0 mm
06:40 PM 84.5°F29.2°C 52.2°F11.2°C 33% 1.3 mph ESE2.1 kmh ESE 4.0 mph6.4 kmh 30.05 in1017.6 mb 0.00 in0.0 mm 0.00 in0.0 mm 0.00 in0.0 mm
06:45 PM 84.3°F29.1°C 51.2°F10.7°C 32% 2.8 mph SE4.5 kmh SE 8.0 mph12.9 kmh 30.05 in1017.6 mb 0.00 in0.0 mm 0.00 in0.0 mm 0.00 in0.0 mm
06:50 PM 83.8°F28.8°C 51.6°F10.9°C 33% 2.1 mph SE3.4 kmh SE 8.0 mph12.9 kmh 30.05 in1017.6 mb 0.00 in0.0 mm 0.00 in0.0 mm 0.00 in0.0 mm
06:55 PM 83.6°F28.7°C 51.4°F10.8°C 33% 1.8 mph SE2.9 kmh SE 7.0 mph11.3 kmh 30.05 in1017.6 mb 0.00 in0.0 mm 0.00 in0.0 mm 0.00 in0.0 mm
07:00 PM 83.4°F28.6°C 51.2°F10.7°C 33% 2.2 mph SE3.5 kmh SE 5.0 mph8.0 kmh 30.06 in1017.9 mb 0.00 in0.0 mm 0.00 in0.0 mm 0.00 in0.0 mm
07:05 PM 83.1°F28.4°C 51.8°F11.0°C 34% 1.7 mph SE2.7 kmh SE 6.0 mph9.7 kmh 30.06 in1017.9 mb 0.00 in0.0 mm 0.00 in0.0 mm 0.00 in0.0 mm
07:10 PM 82.7°F28.2°C 51.4°F10.8°C 34% 1.3 mph SE2.1 kmh SE 6.0 mph9.7 kmh 30.06 in1017.9 mb 0.00 in0.0 mm 0.00 in0.0 mm 0.00 in0.0 mm
07:15 PM 82.3°F27.9°C 51.1°F10.6°C 34% 1.4 mph SE2.3 kmh SE 4.0 mph6.4 kmh 30.06 in1017.9 mb 0.00 in0.0 mm 0.00 in0.0 mm 0.00 in0.0 mm
07:20 PM 82.1°F27.8°C 50.9°F10.5°C 34% 1.8 mph SE2.9 kmh SE 4.0 mph6.4 kmh 30.06 in1017.9 mb 0.00 in0.0 mm 0.00 in0.0 mm 0.00 in0.0 mm
07:25 PM 81.8°F27.7°C 50.7°F10.4°C 34% 1.8 mph SE2.9 kmh SE 4.0 mph6.4 kmh 30.06 in1017.9 mb 0.00 in0.0 mm 0.00 in0.0 mm 0.00 in0.0 mm
07:30 PM 81.6°F27.6°C 51.3°F10.7°C 35% 1.1 mph SE1.8 kmh SE 4.0 mph6.4 kmh 30.06 in1017.9 mb 0.00 in0.0 mm 0.00 in0.0 mm 0.00 in0.0 mm
07:35 PM 81.2°F27.3°C 51.7°F10.9°C 36% 1.0 mph SE1.6 kmh SE 2.0 mph3.2 kmh 30.07 in1018.3 mb 0.00 in0.0 mm 0.00 in0.0 mm 0.00 in0.0 mm
07:40 PM 80.9°F27.2°C 51.4°F10.8°C 36% 1.3 mph SE2.1 kmh SE 4.0 mph6.4 kmh 30.07 in1018.3 mb 0.00 in0.0 mm 0.00 in0.0 mm 0.00 in0.0 mm
07:45 PM 80.5°F26.9°C 51.8°F11.0°C 37% 1.0 mph SE1.6 kmh SE 4.0 mph6.4 kmh 30.06 in1017.9 mb 0.00 in0.0 mm 0.00 in0.0 mm 0.00 in0.0 mm
07:50 PM 80.3°F26.8°C 51.6°F10.9°C 37% 1.3 mph SE2.1 kmh SE 3.0 mph4.8 kmh 30.06 in1017.9 mb 0.00 in0.0 mm 0.00 in0.0 mm 0.00 in0.0 mm
07:55 PM 80.1°F26.7°C 52.2°F11.2°C 38% 1.6 mph SE2.6 kmh SE 3.0 mph4.8 kmh 30.07 in1018.3 mb 0.00 in0.0 mm 0.00 in0.0 mm 0.00 in0.0 mm
08:00 PM 79.7°F26.5°C 52.5°F11.4°C 39% 1.0 mph SE1.6 kmh SE 3.0 mph4.8 kmh 30.07 in1018.3 mb 0.00 in0.0 mm 0.00 in0.0 mm 0.00 in0.0 mm
08:05 PM 79.3°F26.3°C 52.2°F11.2°C 39% 1.0 mph SE1.6 kmh SE 3.0 mph4.8 kmh 30.07 in1018.3 mb 0.00 in0.0 mm 0.00 in0.0 mm 0.00 in0.0 mm
08:10 PM 78.8°F26.0°C 53.1°F11.7°C 41% Calm Calm 3.0 mph4.8 kmh 30.07 in1018.3 mb 0.00 in0.0 mm 0.00 in0.0 mm 0.00 in0.0 mm
08:15 PM 78.5°F25.8°C 54.1°F12.3°C 43% 0.4 mph SE0.6 kmh SE 2.0 mph3.2 kmh 30.07 in1018.3 mb 0.00 in0.0 mm 0.00 in0.0 mm 0.00 in0.0 mm
08:20 PM 78.7°F25.9°C 54.9°F12.7°C 44% 1.3 mph SE2.1 kmh SE 3.0 mph4.8 kmh 30.07 in1018.3 mb 0.00 in0.0 mm 0.00 in0.0 mm 0.00 in0.0 mm
08:25 PM 78.8°F26.0°C 55.6°F13.1°C 45% 1.9 mph SE3.1 kmh SE 4.0 mph6.4 kmh 30.07 in1018.3 mb 0.00 in0.0 mm 0.00 in0.0 mm 0.00 in0.0 mm
08:30 PM 78.9°F26.1°C 55.7°F13.2°C 45% 1.8 mph SE2.9 kmh SE 4.0 mph6.4 kmh 30.07 in1018.3 mb 0.00 in0.0 mm 0.00 in0.0 mm 0.00 in0.0 mm
08:35 PM 79.0°F26.1°C 55.8°F13.2°C 45% 1.7 mph SE2.7 kmh SE 5.0 mph8.0 kmh 30.07 in1018.3 mb 0.00 in0.0 mm 0.00 in0.0 mm 0.00 in0.0 mm
08:40 PM 78.9°F26.1°C 55.7°F13.2°C 45% 2.1 mph SE3.4 kmh SE 6.0 mph9.7 kmh 30.07 in1018.3 mb 0.00 in0.0 mm 0.00 in0.0 mm 0.00 in0.0 mm
08:45 PM 78.7°F25.9°C 55.6°F13.1°C 45% 1.6 mph SE2.6 kmh SE 6.0 mph9.7 kmh 30.07 in1018.3 mb 0.00 in0.0 mm 0.00 in0.0 mm 0.00 in0.0 mm
08:50 PM 78.7°F25.9°C 55.6°F13.1°C 45% 1.4 mph SSE2.3 kmh SSE 4.0 mph6.4 kmh 30.07 in1018.3 mb 0.00 in0.0 mm 0.00 in0.0 mm 0.00 in0.0 mm
08:55 PM 78.6°F25.9°C 55.5°F13.1°C 45% 1.1 mph SSE1.8 kmh SSE 4.0 mph6.4 kmh 30.08 in1018.6 mb 0.00 in0.0 mm 0.00 in0.0 mm 0.00 in0.0 mm
09:00 PM 78.4°F25.8°C 55.3°F12.9°C 45% 1.0 mph SSE1.6 kmh SSE 3.0 mph4.8 kmh 30.08 in1018.6 mb 0.00 in0.0 mm 0.00 in0.0 mm 0.00 in0.0 mm
09:05 PM 78.0°F25.6°C 55.5°F13.1°C 46% 0.8 mph SSE1.3 kmh SSE 3.0 mph4.8 kmh 30.08 in1018.6 mb 0.00 in0.0 mm 0.00 in0.0 mm 0.00 in0.0 mm
09:10 PM 77.9°F25.5°C 55.4°F13.0°C 46% 1.7 mph SSE2.7 kmh SSE 3.0 mph4.8 kmh 30.08 in1018.6 mb 0.00 in0.0 mm 0.00 in0.0 mm 0.00 in0.0 mm
09:15 PM 77.6°F25.3°C 54.6°F12.6°C 45% 1.5 mph SSE2.4 kmh SSE 3.0 mph4.8 kmh 30.08 in1018.6 mb 0.00 in0.0 mm 0.00 in0.0 mm 0.00 in0.0 mm
09:20 PM 77.9°F25.5°C 54.8°F12.7°C 45% 1.9 mph SE3.1 kmh SE 4.0 mph6.4 kmh 30.09 in1019.0 mb 0.00 in0.0 mm 0.00 in0.0 mm 0.00 in0.0 mm
09:25 PM 77.7°F25.4°C 54.0°F12.2°C 44% 1.9 mph SE3.1 kmh SE 4.0 mph6.4 kmh 30.09 in1019.0 mb 0.00 in0.0 mm 0.00 in0.0 mm 0.00 in0.0 mm
09:30 PM 77.4°F25.2°C 54.4°F12.4°C 45% 2.0 mph SE3.2 kmh SE 4.0 mph6.4 kmh 30.09 in1019.0 mb 0.00 in0.0 mm 0.00 in0.0 mm 0.00 in0.0 mm
09:35 PM 77.4°F25.2°C 54.4°F12.4°C 45% 2.2 mph SE3.5 kmh SE 5.0 mph8.0 kmh 30.09 in1019.0 mb 0.00 in0.0 mm 0.00 in0.0 mm 0.00 in0.0 mm
09:40 PM 77.0°F25.0°C 54.6°F12.6°C 46% 1.6 mph SSE2.6 kmh SSE 5.0 mph8.0 kmh 30.09 in1019.0 mb 0.00 in0.0 mm 0.00 in0.0 mm 0.00 in0.0 mm
09:45 PM 77.0°F25.0°C 54.6°F12.6°C 46% 1.3 mph SSE2.1 kmh SSE 3.0 mph4.8 kmh 30.09 in1019.0 mb 0.00 in0.0 mm 0.00 in0.0 mm 0.00 in0.0 mm
09:50 PM 77.1°F25.1°C 54.7°F12.6°C 46% 1.9 mph SE3.1 kmh SE 4.0 mph6.4 kmh 30.09 in1019.0 mb 0.00 in0.0 mm 0.00 in0.0 mm 0.00 in0.0 mm
09:55 PM 76.9°F24.9°C 54.5°F12.5°C 46% 1.2 mph SE1.9 kmh SE 4.0 mph6.4 kmh 30.09 in1019.0 mb 0.00 in0.0 mm 0.00 in0.0 mm 0.00 in0.0 mm
10:00 PM 76.6°F24.8°C 54.8°F12.7°C 47% 0.5 mph SE0.8 kmh SE 3.0 mph4.8 kmh 30.09 in1019.0 mb 0.00 in0.0 mm 0.00 in0.0 mm 0.00 in0.0 mm
10:05 PM 76.4°F24.7°C 54.7°F12.6°C 47% 1.1 mph SE1.8 kmh SE 2.0 mph3.2 kmh 30.09 in1019.0 mb 0.00 in0.0 mm 0.00 in0.0 mm 0.00 in0.0 mm
10:10 PM 76.2°F24.6°C 54.5°F12.5°C 47% 1.5 mph SE2.4 kmh SE 3.0 mph4.8 kmh 30.09 in1019.0 mb 0.00 in0.0 mm 0.00 in0.0 mm 0.00 in0.0 mm
10:15 PM 75.5°F24.2°C 55.0°F12.8°C 49% 1.4 mph SE2.3 kmh SE 3.0 mph4.8 kmh 30.09 in1019.0 mb 0.00 in0.0 mm 0.00 in0.0 mm 0.00 in0.0 mm
10:20 PM 75.3°F24.1°C 54.8°F12.7°C 49% 0.6 mph SE1.0 kmh SE 3.0 mph4.8 kmh 30.09 in1019.0 mb 0.00 in0.0 mm 0.00 in0.0 mm 0.00 in0.0 mm
10:25 PM 75.2°F24.0°C 54.7°F12.6°C 49% 0.6 mph SE1.0 kmh SE 3.0 mph4.8 kmh 30.10 in1019.3 mb 0.00 in0.0 mm 0.00 in0.0 mm 0.00 in0.0 mm
10:30 PM 74.8°F23.8°C 55.4°F13.0°C 51% 0.5 mph SE0.8 kmh SE 2.0 mph3.2 kmh 30.10 in1019.3 mb 0.00 in0.0 mm 0.00 in0.0 mm 0.00 in0.0 mm
10:35 PM 74.6°F23.7°C 55.3°F12.9°C 51% Calm Calm 2.0 mph3.2 kmh 30.10 in1019.3 mb 0.00 in0.0 mm 0.00 in0.0 mm 0.00 in0.0 mm
10:40 PM 74.5°F23.6°C 55.2°F12.9°C 51% 0.5 mph SE0.8 kmh SE 2.0 mph3.2 kmh 30.10 in1019.3 mb 0.00 in0.0 mm 0.00 in0.0 mm 0.00 in0.0 mm
10:45 PM 73.9°F23.3°C 55.7°F13.2°C 53% Calm Calm 2.0 mph3.2 kmh 30.10 in1019.3 mb 0.00 in0.0 mm 0.00 in0.0 mm 0.00 in0.0 mm
10:50 PM 73.4°F23.0°C 55.7°F13.2°C 54% Calm Calm 1.0 mph1.6 kmh 30.10 in1019.3 mb 0.00 in0.0 mm 0.00 in0.0 mm 0.00 in0.0 mm
10:55 PM 73.6°F23.1°C 55.9°F13.3°C 54% 0.6 mph SE1.0 kmh SE 2.0 mph3.2 kmh 30.10 in1019.3 mb 0.00 in0.0 mm 0.00 in0.0 mm 0.00 in0.0 mm
11:00 PM 73.8°F23.2°C 56.1°F13.4°C 54% 1.0 mph SE1.6 kmh SE 2.0 mph3.2 kmh 30.09 in1019.0 mb 0.00 in0.0 mm 0.00 in0.0 mm 0.00 in0.0 mm
11:05 PM 73.8°F23.2°C 56.6°F13.7°C 55% 0.2 mph SE0.3 kmh SE 2.0 mph3.2 kmh 30.10 in1019.3 mb 0.00 in0.0 mm 0.00 in0.0 mm 0.00 in0.0 mm
11:10 PM 73.9°F23.3°C 56.2°F13.4°C 54% 0.6 mph SE1.0 kmh SE 2.0 mph3.2 kmh 30.10 in1019.3 mb 0.00 in0.0 mm 0.00 in0.0 mm 0.00 in0.0 mm
11:15 PM 73.8°F23.2°C 56.1°F13.4°C 54% 1.1 mph SE1.8 kmh SE 2.0 mph3.2 kmh 30.09 in1019.0 mb 0.00 in0.0 mm 0.00 in0.0 mm 0.00 in0.0 mm
11:20 PM 74.1°F23.4°C 55.9°F13.3°C 53% 1.0 mph SE1.6 kmh SE 3.0 mph4.8 kmh 30.09 in1019.0 mb 0.00 in0.0 mm 0.00 in0.0 mm 0.00 in0.0 mm
11:25 PM 74.1°F23.4°C 56.4°F13.6°C 54% 1.5 mph SE2.4 kmh SE 3.0 mph4.8 kmh 30.09 in1019.0 mb 0.00 in0.0 mm 0.00 in0.0 mm 0.00 in0.0 mm
11:30 PM 74.2°F23.4°C 56.5°F13.6°C 54% 0.8 mph SE1.3 kmh SE 3.0 mph4.8 kmh 30.10 in1019.3 mb 0.00 in0.0 mm 0.00 in0.0 mm 0.00 in0.0 mm
11:35 PM 74.2°F23.4°C 56.5°F13.6°C 54% 0.9 mph SE1.4 kmh SE 3.0 mph4.8 kmh 30.10 in1019.3 mb 0.00 in0.0 mm 0.00 in0.0 mm 0.00 in0.0 mm
11:40 PM 74.0°F23.3°C 56.8°F13.8°C 55% 1.0 mph SE1.6 kmh SE 3.0 mph4.8 kmh 30.10 in1019.3 mb 0.00 in0.0 mm 0.00 in0.0 mm 0.00 in0.0 mm
11:45 PM 73.9°F23.3°C 56.7°F13.7°C 55% 0.8 mph SE1.3 kmh SE 3.0 mph4.8 kmh 30.10 in1019.3 mb 0.00 in0.0 mm 0.00 in0.0 mm 0.00 in0.0 mm
11:50 PM 74.2°F23.4°C 57.0°F13.9°C 55% 0.6 mph SE1.0 kmh SE 3.0 mph4.8 kmh 30.10 in1019.3 mb 0.00 in0.0 mm 0.00 in0.0 mm 0.00 in0.0 mm
11:55 PM 74.2°F23.4°C 57.0°F13.9°C 55% 1.5 mph SE2.4 kmh SE 5.0 mph8.0 kmh 30.10 in1019.3 mb 0.00 in0.0 mm 0.00 in0.0 mm 0.00 in0.0 mm